createdAt,value
2023-03-05T00:01:57.557Z,0.80
2023-03-05T00:04:25.724Z,0.80
2023-03-05T00:06:52.405Z,0.90
2023-03-05T00:09:19.289Z,1.00
2023-03-05T00:11:46.019Z,0.90
2023-03-05T00:14:13.164Z,1.00
2023-03-05T00:16:40.258Z,1.00
2023-03-05T00:19:06.957Z,1.00
2023-03-05T00:21:39.343Z,0.80
2023-03-05T00:24:11.664Z,0.90
2023-03-05T00:26:39.494Z,0.90
2023-03-05T00:29:08.168Z,0.90
2023-03-05T00:31:36.296Z,0.80
2023-03-05T00:34:08.222Z,0.80
2023-03-05T00:36:38.836Z,0.90
2023-03-05T00:39:05.490Z,0.90
2023-03-05T00:41:32.666Z,1.00
2023-03-05T00:43:59.397Z,1.00
2023-03-05T00:46:27.790Z,0.90
2023-03-05T00:48:57.237Z,0.80
2023-03-05T00:51:24.629Z,0.80
2023-03-05T00:53:51.329Z,0.80
2023-03-05T00:56:18.011Z,0.90
2023-03-05T00:58:44.802Z,0.90
2023-03-05T01:01:11.741Z,0.90
2023-03-05T01:03:38.504Z,0.90
2023-03-05T01:06:08.762Z,0.90
2023-03-05T01:08:36.671Z,1.00
2023-03-05T01:11:04.732Z,0.90
2023-03-05T01:13:31.472Z,0.90
2023-03-05T01:15:58.197Z,0.90
2023-03-05T01:18:24.901Z,0.90
2023-03-05T01:20:51.580Z,1.00
2023-03-05T01:23:18.993Z,0.90
2023-03-05T01:25:45.743Z,0.90
2023-03-05T01:28:13.350Z,0.90
2023-03-05T01:30:40.003Z,0.90
2023-03-05T01:33:06.648Z,0.90
2023-03-05T01:35:33.304Z,0.90
2023-03-05T01:37:59.994Z,1.00
2023-03-05T01:40:29.203Z,1.00
2023-03-05T01:43:06.470Z,1.10
2023-03-05T01:45:33.216Z,1.00
2023-03-05T01:48:00.032Z,1.00
2023-03-05T01:50:27.801Z,1.10
2023-03-05T01:53:06.403Z,0.70
2023-03-05T01:55:37.173Z,0.80
2023-03-05T01:58:06.439Z,0.90
2023-03-05T02:00:37.953Z,1.00
2023-03-05T02:03:09.737Z,1.00
2023-03-05T02:05:38.966Z,1.10
2023-03-05T02:08:08.877Z,1.00
2023-03-05T02:10:42.720Z,1.00
2023-03-05T02:13:13.357Z,1.00
2023-03-05T02:15:41.775Z,1.00
2023-03-05T02:18:09.212Z,1.00
2023-03-05T02:20:48.092Z,1.00
2023-03-05T02:23:15.417Z,0.90
2023-03-05T02:25:42.063Z,0.90
2023-03-05T02:28:37.981Z,0.90
2023-03-05T02:31:19.856Z,0.90
2023-03-05T02:33:47.595Z,0.80
2023-03-05T02:36:14.555Z,0.70
2023-03-05T02:38:42.185Z,0.80
2023-03-05T02:41:09.103Z,0.90
2023-03-05T02:43:36.107Z,1.00
2023-03-05T02:46:02.848Z,1.10
2023-03-05T02:48:29.828Z,1.00
2023-03-05T02:50:57.473Z,1.00
2023-03-05T02:53:24.248Z,1.00
2023-03-05T02:55:50.997Z,1.00
2023-03-05T02:58:18.383Z,0.90
2023-03-05T03:00:46.669Z,1.00
2023-03-05T03:03:14.241Z,1.10
2023-03-05T03:05:40.948Z,1.10
2023-03-05T03:08:08.274Z,1.10
2023-03-05T03:10:35.022Z,1.10
2023-03-05T03:13:02.011Z,1.10
2023-03-05T03:15:28.939Z,1.10
2023-03-05T03:17:55.933Z,1.10
2023-03-05T03:20:23.475Z,1.10
2023-03-05T03:22:50.609Z,1.10
2023-03-05T03:25:20.062Z,1.10
2023-03-05T03:27:46.686Z,1.00
2023-03-05T03:30:14.632Z,1.00
2023-03-05T03:32:41.563Z,1.10
2023-03-05T03:35:09.224Z,1.10
2023-03-05T03:37:36.164Z,1.10
2023-03-05T03:40:05.659Z,1.20
2023-03-05T03:42:32.482Z,1.20
2023-03-05T03:45:00.425Z,1.20
2023-03-05T03:47:27.238Z,1.20
2023-03-05T03:49:54.811Z,1.20
2023-03-05T03:52:22.929Z,1.20
2023-03-05T03:54:52.253Z,1.20
2023-03-05T03:57:19.334Z,1.30
2023-03-05T03:59:46.087Z,1.20
2023-03-05T04:02:13.002Z,1.20
2023-03-05T04:04:39.824Z,1.10
2023-03-05T04:07:06.605Z,1.10
2023-03-05T04:09:33.286Z,1.10
2023-03-05T04:11:59.938Z,1.10
2023-03-05T04:14:27.263Z,1.10
2023-03-05T04:16:53.919Z,1.10
2023-03-05T04:19:21.464Z,1.10
2023-03-05T04:21:48.135Z,1.20
2023-03-05T04:24:15.056Z,1.20
2023-03-05T04:26:41.712Z,1.30
2023-03-05T04:29:08.448Z,1.30
2023-03-05T04:31:35.148Z,1.30
2023-03-05T04:34:01.839Z,1.40
2023-03-05T04:36:28.472Z,1.40
2023-03-05T04:38:55.095Z,1.50
2023-03-05T04:41:21.754Z,1.50
2023-03-05T04:43:48.406Z,1.40
2023-03-05T04:46:15.096Z,1.50
2023-03-05T04:48:41.811Z,1.50
2023-03-05T04:51:08.511Z,1.50
2023-03-05T04:53:36.054Z,1.60
2023-03-05T04:56:02.988Z,1.60
2023-03-05T04:58:29.797Z,1.60
2023-03-05T05:01:05.384Z,1.60
2023-03-05T05:03:32.727Z,1.70
2023-03-05T05:06:00.972Z,1.70
2023-03-05T05:08:28.872Z,1.70
2023-03-05T05:11:04.176Z,1.80
2023-03-05T05:13:32.158Z,1.70
2023-03-05T05:15:58.890Z,1.80
2023-03-05T05:18:26.186Z,1.80
2023-03-05T05:20:53.168Z,1.70
2023-03-05T05:23:19.945Z,1.80
2023-03-05T05:25:46.622Z,1.70
2023-03-05T05:28:13.297Z,1.60
2023-03-05T05:30:39.965Z,1.60
2023-03-05T05:33:06.596Z,1.60
2023-03-05T05:35:33.334Z,1.60
2023-03-05T05:38:00.088Z,1.60
2023-03-05T05:40:26.862Z,1.40
2023-03-05T05:42:54.150Z,1.50
2023-03-05T05:45:20.898Z,1.60
2023-03-05T05:47:47.567Z,1.60
2023-03-05T05:50:14.867Z,1.60
2023-03-05T05:52:41.532Z,1.60
2023-03-05T05:55:08.678Z,1.60
2023-03-05T05:57:35.493Z,1.60
2023-03-05T06:00:02.555Z,1.50
2023-03-05T06:02:29.216Z,1.50
2023-03-05T06:04:58.259Z,1.40
2023-03-05T06:07:25.172Z,1.40
2023-03-05T06:12:34.071Z,1.40
2023-03-05T06:15:00.706Z,1.50
2023-03-05T06:17:30.775Z,1.40
2023-03-05T06:19:58.372Z,1.40
2023-03-05T06:22:25.354Z,1.40
2023-03-05T06:24:51.994Z,1.30
2023-03-05T06:27:18.744Z,1.40
2023-03-05T06:29:45.407Z,1.30
2023-03-05T06:32:13.190Z,1.30
2023-03-05T06:34:39.852Z,1.30
2023-03-05T06:37:06.511Z,1.40
2023-03-05T06:39:33.445Z,1.40
2023-03-05T06:42:00.136Z,1.40
2023-03-05T06:44:26.807Z,1.50
2023-03-05T06:46:53.521Z,1.50
2023-03-05T06:49:20.310Z,1.40
2023-03-05T06:51:47.028Z,1.40
2023-03-05T06:54:15.791Z,1.40
2023-03-05T06:56:45.199Z,1.50
2023-03-05T06:59:13.784Z,1.50
2023-03-05T07:01:40.474Z,1.60
2023-03-05T07:04:07.250Z,1.50
2023-03-05T07:06:36.772Z,1.60
2023-03-05T07:09:04.541Z,1.70
2023-03-05T07:11:31.322Z,1.80
2023-03-05T07:13:58.674Z,1.70
2023-03-05T07:16:31.416Z,1.80
2023-03-05T07:18:59.976Z,1.90
2023-03-05T07:21:32.515Z,1.90
2023-03-05T07:24:01.073Z,2.00
2023-03-05T07:26:28.370Z,2.00
2023-03-05T07:28:55.330Z,2.10
2023-03-05T07:31:30.738Z,2.10
2023-03-05T07:33:59.164Z,2.10
2023-03-05T07:36:26.585Z,2.20
2023-03-05T07:38:53.411Z,2.20
2023-03-05T07:41:21.921Z,2.20
2023-03-05T07:43:50.161Z,2.20
2023-03-05T07:46:18.917Z,2.20
2023-03-05T07:48:45.772Z,2.40
2023-03-05T07:51:18.475Z,2.40
2023-03-05T07:53:46.248Z,2.40
2023-03-05T07:56:13.715Z,2.30
2023-03-05T07:58:40.488Z,2.20
2023-03-05T08:01:14.371Z,2.40
2023-03-05T08:03:42.752Z,2.50
2023-03-05T08:06:11.138Z,2.50
2023-03-05T08:08:38.528Z,2.50
2023-03-05T08:11:07.011Z,2.50
2023-03-05T08:13:33.854Z,2.60
2023-03-05T08:16:09.169Z,2.50
2023-03-05T08:18:35.894Z,2.40
2023-03-05T08:21:02.802Z,2.40
2023-03-05T08:23:29.917Z,2.40
2023-03-05T08:25:57.182Z,2.60
2023-03-05T08:28:23.990Z,2.50
2023-03-05T08:30:50.684Z,2.50
2023-03-05T08:33:17.833Z,2.40
2023-03-05T08:35:44.708Z,2.50
2023-03-05T08:38:11.587Z,2.50
2023-03-05T08:40:38.290Z,2.40
2023-03-05T08:43:06.229Z,2.50
2023-03-05T08:45:32.885Z,2.50
2023-03-05T08:47:59.593Z,2.60
2023-03-05T08:50:26.332Z,2.60
2023-03-05T08:52:53.028Z,2.60
2023-03-05T08:55:19.702Z,2.70
2023-03-05T08:57:46.337Z,2.60
2023-03-05T09:00:13.912Z,2.50
2023-03-05T09:02:40.719Z,2.60
2023-03-05T09:05:08.040Z,2.60
2023-03-05T09:07:34.687Z,2.60
2023-03-05T09:10:01.344Z,2.50
2023-03-05T09:12:28.174Z,2.50
2023-03-05T09:14:56.600Z,2.60
2023-03-05T09:17:24.018Z,2.70
2023-03-05T09:19:50.830Z,2.70
2023-03-05T09:22:17.602Z,2.70
2023-03-05T09:24:44.301Z,2.80
2023-03-05T09:27:11.089Z,2.80
2023-03-05T09:29:38.000Z,2.70
2023-03-05T09:32:05.182Z,2.70
2023-03-05T09:34:32.103Z,2.70
2023-03-05T09:36:58.774Z,2.70
2023-03-05T09:39:25.441Z,2.70
2023-03-05T09:42:20.546Z,2.70
2023-03-05T09:45:10.066Z,2.60
2023-03-05T09:48:09.622Z,2.80
2023-03-05T09:50:43.504Z,2.70
2023-03-05T09:53:28.664Z,2.80
2023-03-05T09:56:03.230Z,2.80
2023-03-05T09:58:49.426Z,2.80
2023-03-05T10:01:21.064Z,2.80
2023-03-05T10:03:57.372Z,2.90
2023-03-05T10:06:36.661Z,2.90
2023-03-05T10:09:46.268Z,2.90
2023-03-05T10:12:27.913Z,2.80
2023-03-05T10:14:55.259Z,2.90
2023-03-05T10:17:21.859Z,2.80
2023-03-05T10:20:26.201Z,2.80
2023-03-05T10:23:07.969Z,2.90
2023-03-05T10:26:00.280Z,3.00
2023-03-05T10:29:18.067Z,3.10
2023-03-05T10:32:10.706Z,3.10
2023-03-05T10:35:01.651Z,3.10
2023-03-05T10:37:52.123Z,3.20
2023-03-05T10:40:46.171Z,3.20
2023-03-05T10:43:42.361Z,3.20
2023-03-05T10:46:15.914Z,3.40
2023-03-05T10:49:00.471Z,3.30
2023-03-05T10:51:38.596Z,3.30
2023-03-05T10:54:26.867Z,3.40
2023-03-05T10:57:12.525Z,3.50
2023-03-05T10:59:44.447Z,3.50
2023-03-05T11:02:11.196Z,3.50
2023-03-05T11:04:41.607Z,3.50
2023-03-05T11:07:17.289Z,3.70
2023-03-05T11:10:03.951Z,3.70
2023-03-05T11:12:33.067Z,3.70
2023-03-05T11:15:14.487Z,3.80
2023-03-05T11:18:04.403Z,3.70
2023-03-05T11:20:37.072Z,3.70
2023-03-05T11:23:17.565Z,3.70
2023-03-05T11:26:03.052Z,3.70
2023-03-05T11:28:54.464Z,3.80
2023-03-05T11:31:24.519Z,3.90
2023-03-05T11:34:17.169Z,3.90
2023-03-05T11:37:03.683Z,3.70
2023-03-05T11:39:34.261Z,3.70
2023-03-05T11:42:13.664Z,3.80
2023-03-05T11:44:50.404Z,3.80
2023-03-05T11:47:41.356Z,3.90
2023-03-05T11:50:07.989Z,3.80
2023-03-05T11:52:48.595Z,3.80
2023-03-05T11:55:26.119Z,3.90
2023-03-05T11:58:13.165Z,4.00
2023-03-05T12:00:43.774Z,3.90
2023-03-05T12:03:18.958Z,3.90
2023-03-05T12:05:51.476Z,4.00
2023-03-05T12:08:25.718Z,3.90
2023-03-05T12:10:53.192Z,4.00
2023-03-05T12:13:39.234Z,4.10
2023-03-05T12:16:31.835Z,4.10
2023-03-05T12:19:10.168Z,4.20
2023-03-05T12:21:39.603Z,4.10
2023-03-05T12:24:27.445Z,4.20
2023-03-05T12:27:03.989Z,4.30
2023-03-05T12:29:42.763Z,4.30
2023-03-05T12:32:32.476Z,4.20
2023-03-05T12:35:04.473Z,4.20
2023-03-05T12:37:31.211Z,4.40
2023-03-05T12:40:12.834Z,4.30
2023-03-05T12:42:52.125Z,4.30
2023-03-05T12:45:19.590Z,4.60
2023-03-05T12:47:56.331Z,4.40
2023-03-05T12:50:29.303Z,4.60
2023-03-05T12:53:04.139Z,4.60
2023-03-05T12:55:37.727Z,4.50
2023-03-05T12:58:27.625Z,4.60
2023-03-05T13:01:08.546Z,4.50
2023-03-05T13:03:36.687Z,4.50
2023-03-05T13:06:06.782Z,4.40
2023-03-05T13:08:37.836Z,4.40
2023-03-05T13:11:06.234Z,4.50
2023-03-05T13:13:41.447Z,4.30
2023-03-05T13:16:19.092Z,4.40
2023-03-05T13:18:49.706Z,4.40
2023-03-05T13:21:19.694Z,4.60
2023-03-05T13:23:57.934Z,4.40
2023-03-05T13:26:45.040Z,4.60
2023-03-05T13:29:28.272Z,4.70
2023-03-05T13:32:06.646Z,4.70
2023-03-05T13:34:47.058Z,4.70
2023-03-05T13:37:23.759Z,4.70
2023-03-05T13:39:55.575Z,4.40
2023-03-05T13:42:32.320Z,4.40
2023-03-05T13:45:02.022Z,4.30
2023-03-05T13:47:33.704Z,4.20
2023-03-05T13:50:08.673Z,4.20
2023-03-05T13:52:37.521Z,4.10
2023-03-05T13:55:13.234Z,4.10
2023-03-05T13:57:50.937Z,4.10
2023-03-05T14:00:38.999Z,4.20
2023-03-05T14:03:34.894Z,4.30
2023-03-05T14:06:02.663Z,4.30
2023-03-05T14:08:31.669Z,4.40
2023-03-05T14:11:10.891Z,4.40
2023-03-05T14:13:38.151Z,4.30
2023-03-05T14:16:23.699Z,4.10
2023-03-05T14:18:58.854Z,4.20
2023-03-05T14:21:25.811Z,4.20
2023-03-05T14:23:55.087Z,4.30
2023-03-05T14:26:32.617Z,4.30
2023-03-05T14:29:06.604Z,4.20
2023-03-05T14:31:45.704Z,4.30
2023-03-05T14:34:30.834Z,4.40
2023-03-05T14:37:00.989Z,4.30
2023-03-05T14:39:40.481Z,4.20
2023-03-05T14:42:27.409Z,4.20
2023-03-05T14:44:56.380Z,4.10
2023-03-05T14:47:24.190Z,4.00
2023-03-05T14:49:50.957Z,4.10
2023-03-05T14:52:20.700Z,4.10
2023-03-05T14:54:48.531Z,4.10
2023-03-05T14:57:19.618Z,4.10
2023-03-05T14:59:46.370Z,4.10
2023-03-05T15:02:19.242Z,4.00
2023-03-05T15:04:46.589Z,3.90
2023-03-05T15:07:32.094Z,3.90
2023-03-05T15:10:00.053Z,3.90
2023-03-05T15:12:27.295Z,3.90
2023-03-05T15:14:58.034Z,3.90
2023-03-05T15:17:47.239Z,4.00
2023-03-05T15:20:19.561Z,4.10
2023-03-05T15:22:46.349Z,3.90
2023-03-05T15:25:13.421Z,3.90
2023-03-05T15:27:40.362Z,3.90
2023-03-05T15:30:09.068Z,3.90
2023-03-05T15:32:35.828Z,3.90
2023-03-05T15:35:04.784Z,4.00
2023-03-05T15:37:31.419Z,3.90
2023-03-05T15:39:58.049Z,4.00
2023-03-05T15:42:24.682Z,4.00
2023-03-05T15:44:51.404Z,4.00
2023-03-05T15:47:18.067Z,4.00
2023-03-05T15:49:45.392Z,3.90
2023-03-05T15:52:12.069Z,4.00
2023-03-05T15:54:39.134Z,4.00
2023-03-05T15:57:09.518Z,3.80
2023-03-05T15:59:36.634Z,3.80
2023-03-05T16:02:03.395Z,3.70
2023-03-05T16:04:30.434Z,3.80
2023-03-05T16:07:00.144Z,3.80
2023-03-05T16:09:31.969Z,3.80
2023-03-05T16:12:01.427Z,3.70
2023-03-05T16:14:32.751Z,3.80
2023-03-05T16:17:05.088Z,3.70
2023-03-05T16:19:35.283Z,3.70
2023-03-05T16:22:03.473Z,3.70
2023-03-05T16:24:32.179Z,3.60
2023-03-05T16:26:59.278Z,3.60
2023-03-05T16:29:27.513Z,3.60
2023-03-05T16:31:55.309Z,3.70
2023-03-05T16:34:22.033Z,3.70
2023-03-05T16:36:52.463Z,3.60
2023-03-05T16:39:22.808Z,3.60
2023-03-05T16:41:50.368Z,3.60
2023-03-05T16:44:17.054Z,3.60
2023-03-05T16:46:49.095Z,3.60
2023-03-05T16:49:16.702Z,3.50
2023-03-05T16:51:43.348Z,3.50
2023-03-05T16:54:10.297Z,3.50
2023-03-05T16:56:37.365Z,3.50
2023-03-05T16:59:05.163Z,3.50
2023-03-05T17:01:32.018Z,3.50
2023-03-05T17:03:59.881Z,3.40
2023-03-05T17:06:28.921Z,3.30
2023-03-05T17:08:56.267Z,3.40
2023-03-05T17:11:25.736Z,3.40
2023-03-05T17:13:52.569Z,3.40
2023-03-05T17:16:20.995Z,3.30
2023-03-05T17:18:48.245Z,3.30
2023-03-05T17:21:16.209Z,3.40
2023-03-05T17:23:43.177Z,3.40
2023-03-05T17:26:13.051Z,3.30
2023-03-05T17:28:40.508Z,3.30
2023-03-05T17:31:07.617Z,3.30
2023-03-05T17:33:34.980Z,3.20
2023-03-05T17:36:02.626Z,3.30
2023-03-05T17:38:32.344Z,3.30
2023-03-05T17:40:59.006Z,3.30
2023-03-05T17:43:25.770Z,3.30
2023-03-05T17:45:52.692Z,3.30
2023-03-05T17:48:19.411Z,3.30
2023-03-05T17:50:48.849Z,3.30
2023-03-05T17:53:15.523Z,3.30
2023-03-05T17:55:42.884Z,3.30
2023-03-05T17:58:10.000Z,3.20
2023-03-05T18:00:37.375Z,3.20
2023-03-05T18:03:04.717Z,3.20
2023-03-05T18:05:32.078Z,3.20
2023-03-05T18:08:00.059Z,3.20
2023-03-05T18:10:28.476Z,3.20
2023-03-05T18:12:55.800Z,3.30
2023-03-05T18:15:24.183Z,3.30
2023-03-05T18:17:51.550Z,3.30
2023-03-05T18:20:31.302Z,3.30
2023-03-05T18:23:00.803Z,3.20
2023-03-05T18:25:31.131Z,3.30
2023-03-05T18:28:11.559Z,3.20
2023-03-05T18:30:40.431Z,3.20
2023-03-05T18:33:08.058Z,3.20
2023-03-05T18:35:35.017Z,3.30
2023-03-05T18:38:02.112Z,3.20
2023-03-05T18:40:32.634Z,3.20
2023-03-05T18:43:00.958Z,3.10
2023-03-05T18:45:28.213Z,3.20
2023-03-05T18:47:56.659Z,3.20
2023-03-05T18:50:29.129Z,3.20
2023-03-05T18:52:55.980Z,3.20
2023-03-05T18:55:31.778Z,3.20
2023-03-05T18:57:58.598Z,3.20
2023-03-05T19:00:30.835Z,3.20
2023-03-05T19:03:00.630Z,3.20
2023-03-05T19:05:27.410Z,3.20
2023-03-05T19:07:55.235Z,3.20
2023-03-05T19:10:22.598Z,3.20
2023-03-05T19:12:55.635Z,3.20
2023-03-05T19:15:22.978Z,3.20
2023-03-05T19:17:51.421Z,3.10
2023-03-05T19:20:18.550Z,3.10
2023-03-05T19:22:45.242Z,3.10
2023-03-05T19:25:12.203Z,3.10
2023-03-05T19:27:41.834Z,3.20
2023-03-05T19:30:10.407Z,3.30
2023-03-05T19:32:37.378Z,3.30
2023-03-05T19:35:04.992Z,3.20
2023-03-05T19:37:32.370Z,3.10
2023-03-05T19:39:59.332Z,3.10
2023-03-05T19:42:26.137Z,3.10
2023-03-05T19:44:53.628Z,3.10
2023-03-05T19:47:20.402Z,3.00
2023-03-05T19:49:47.492Z,2.90
2023-03-05T19:52:14.171Z,3.00
2023-03-05T19:54:40.847Z,2.90
2023-03-05T19:57:07.662Z,2.90
2023-03-05T19:59:34.380Z,2.90
2023-03-05T20:02:01.121Z,2.90
2023-03-05T20:04:28.121Z,2.90
2023-03-05T20:06:54.795Z,2.90
2023-03-05T20:09:21.858Z,2.90
2023-03-05T20:11:48.628Z,2.80
2023-03-05T20:14:15.481Z,2.90
2023-03-05T20:16:43.329Z,2.80
2023-03-05T20:19:16.309Z,2.70
2023-03-05T20:21:44.265Z,2.70
2023-03-05T20:24:14.018Z,2.70
2023-03-05T20:26:43.181Z,2.80
2023-03-05T20:29:18.088Z,2.70
2023-03-05T20:31:46.157Z,2.70
2023-03-05T20:34:18.191Z,2.70
2023-03-05T20:36:45.657Z,2.80
2023-03-05T20:39:12.476Z,2.70
2023-03-05T20:41:43.051Z,2.70
2023-03-05T20:44:19.232Z,2.80
2023-03-05T20:46:53.043Z,2.70
2023-03-05T20:49:26.144Z,2.70
2023-03-05T20:51:52.776Z,2.70
2023-03-05T20:54:19.704Z,2.70
2023-03-05T20:56:47.722Z,2.70
2023-03-05T20:59:14.470Z,2.80
2023-03-05T21:01:41.299Z,2.80
2023-03-05T21:04:08.534Z,2.80
2023-03-05T21:06:35.912Z,2.80
2023-03-05T21:09:03.258Z,2.80
2023-03-05T21:11:30.147Z,2.70
2023-03-05T21:13:56.921Z,2.80
2023-03-05T21:16:29.153Z,2.80
2023-03-05T21:18:57.149Z,2.80
2023-03-05T21:21:26.964Z,2.80
2023-03-05T21:23:53.782Z,2.90
2023-03-05T21:26:20.756Z,2.90
2023-03-05T21:28:47.840Z,2.70
2023-03-05T21:31:18.830Z,2.70
2023-03-05T21:33:46.109Z,2.70
2023-03-05T21:36:13.081Z,2.70
2023-03-05T21:38:40.566Z,2.60
2023-03-05T21:41:07.539Z,2.70
2023-03-05T21:43:34.329Z,2.60
2023-03-05T21:46:03.251Z,2.50
2023-03-05T21:48:31.340Z,2.50
2023-03-05T21:50:58.806Z,2.60
2023-03-05T21:53:25.787Z,2.60
2023-03-05T21:56:14.344Z,2.60
2023-03-05T21:58:41.004Z,2.50
2023-03-05T22:01:07.738Z,2.50
2023-03-05T22:03:34.547Z,2.50
2023-03-05T22:06:01.235Z,2.40
2023-03-05T22:08:29.831Z,2.40
2023-03-05T22:10:56.480Z,2.40
2023-03-05T22:13:23.242Z,2.40
2023-03-05T22:15:57.547Z,2.50
2023-03-05T22:18:27.345Z,2.50
2023-03-05T22:20:54.442Z,2.60
2023-03-05T22:23:23.391Z,2.50
2023-03-05T22:25:58.123Z,2.50
2023-03-05T22:28:25.650Z,2.40
2023-03-05T22:30:52.472Z,2.40
2023-03-05T22:33:21.914Z,2.50
2023-03-05T22:35:49.573Z,2.50
2023-03-05T22:38:16.352Z,2.30
2023-03-05T22:40:46.024Z,2.30
2023-03-05T22:43:14.028Z,2.30
2023-03-05T22:45:41.383Z,2.40
2023-03-05T22:48:11.884Z,2.40
2023-03-05T22:50:40.653Z,2.30
2023-03-05T22:53:07.689Z,2.30
2023-03-05T22:55:34.548Z,2.30
2023-03-05T22:58:01.206Z,2.30
2023-03-05T23:00:27.930Z,2.40
2023-03-05T23:02:54.714Z,2.30
2023-03-05T23:05:21.501Z,2.40
2023-03-05T23:07:49.194Z,2.40
2023-03-05T23:10:20.177Z,2.40
2023-03-05T23:12:50.025Z,2.30
2023-03-05T23:15:19.861Z,2.30
2023-03-05T23:17:46.964Z,2.30
2023-03-05T23:20:16.883Z,2.30
2023-03-05T23:22:44.963Z,2.30
2023-03-05T23:25:13.178Z,2.30
2023-03-05T23:27:40.648Z,2.20
2023-03-05T23:30:21.154Z,2.30
2023-03-05T23:32:52.208Z,2.30
2023-03-05T23:35:22.491Z,2.30
2023-03-05T23:37:49.599Z,2.20
2023-03-05T23:40:20.816Z,2.30
2023-03-05T23:42:47.717Z,2.30
2023-03-05T23:45:16.396Z,2.40
2023-03-05T23:47:43.185Z,2.40
2023-03-05T23:50:19.134Z,2.40
2023-03-05T23:52:46.887Z,2.30
2023-03-05T23:55:20.473Z,2.30
2023-03-05T23:57:47.665Z,2.30
